sensor_id;sensor_type;location;lat;lon;timestamp;P1;durP1;ratioP1;P2;durP2;ratioP2
25127;SDS011;13107;51.304;6.866;2024-02-26T00:00:33;2.45;;;0.73;;
25127;SDS011;13107;51.304;6.866;2024-02-26T00:04:36;2.15;;;0.50;;
25127;SDS011;13107;51.304;6.866;2024-02-26T00:08:38;1.42;;;0.62;;
25127;SDS011;13107;51.304;6.866;2024-02-26T00:12:40;1.15;;;0.45;;
25127;SDS011;13107;51.304;6.866;2024-02-26T00:16:41;0.90;;;0.50;;
25127;SDS011;13107;51.304;6.866;2024-02-26T00:20:44;0.37;;;0.25;;
25127;SDS011;13107;51.304;6.866;2024-02-26T00:24:46;1.40;;;0.50;;
25127;SDS011;13107;51.304;6.866;2024-02-26T00:28:47;1.52;;;0.50;;
25127;SDS011;13107;51.304;6.866;2024-02-26T00:32:49;2.22;;;0.70;;
25127;SDS011;13107;51.304;6.866;2024-02-26T00:36:51;2.50;;;0.55;;
25127;SDS011;13107;51.304;6.866;2024-02-26T00:40:53;2.05;;;0.50;;
25127;SDS011;13107;51.304;6.866;2024-02-26T00:44:54;1.60;;;0.70;;
25127;SDS011;13107;51.304;6.866;2024-02-26T00:48:56;1.67;;;0.80;;
25127;SDS011;13107;51.304;6.866;2024-02-26T00:52:58;1.05;;;0.50;;
25127;SDS011;13107;51.304;6.866;2024-02-26T00:57:00;1.42;;;0.55;;
25127;SDS011;13107;51.304;6.866;2024-02-26T01:01:02;1.95;;;0.50;;
25127;SDS011;13107;51.304;6.866;2024-02-26T01:05:07;1.00;;;0.40;;
25127;SDS011;13107;51.304;6.866;2024-02-26T01:09:13;0.82;;;0.43;;
25127;SDS011;13107;51.304;6.866;2024-02-26T01:13:14;2.95;;;0.75;;
25127;SDS011;13107;51.304;6.866;2024-02-26T01:17:16;1.80;;;0.52;;
25127;SDS011;13107;51.304;6.866;2024-02-26T01:21:19;1.35;;;0.40;;
25127;SDS011;13107;51.304;6.866;2024-02-26T01:25:21;3.05;;;0.60;;
25127;SDS011;13107;51.304;6.866;2024-02-26T01:29:22;2.25;;;0.70;;
25127;SDS011;13107;51.304;6.866;2024-02-26T01:33:25;1.55;;;0.80;;
25127;SDS011;13107;51.304;6.866;2024-02-26T01:37:32;1.70;;;0.80;;
25127;SDS011;13107;51.304;6.866;2024-02-26T01:41:34;1.25;;;0.70;;
25127;SDS011;13107;51.304;6.866;2024-02-26T01:45:36;3.70;;;0.80;;
25127;SDS011;13107;51.304;6.866;2024-02-26T01:49:37;1.95;;;0.70;;
25127;SDS011;13107;51.304;6.866;2024-02-26T01:53:41;5.00;;;1.02;;
25127;SDS011;13107;51.304;6.866;2024-02-26T01:57:43;2.00;;;0.93;;
25127;SDS011;13107;51.304;6.866;2024-02-26T02:01:47;3.12;;;0.98;;
25127;SDS011;13107;51.304;6.866;2024-02-26T02:05:53;2.07;;;1.10;;
25127;SDS011;13107;51.304;6.866;2024-02-26T02:09:55;2.55;;;0.90;;
25127;SDS011;13107;51.304;6.866;2024-02-26T02:13:57;1.60;;;1.00;;
25127;SDS011;13107;51.304;6.866;2024-02-26T02:17:58;2.85;;;1.10;;
25127;SDS011;13107;51.304;6.866;2024-02-26T02:22:01;2.22;;;1.05;;
25127;SDS011;13107;51.304;6.866;2024-02-26T02:26:02;2.53;;;0.93;;
25127;SDS011;13107;51.304;6.866;2024-02-26T02:30:04;1.52;;;0.90;;
25127;SDS011;13107;51.304;6.866;2024-02-26T02:34:09;4.30;;;0.80;;
25127;SDS011;13107;51.304;6.866;2024-02-26T02:38:12;1.75;;;0.90;;
25127;SDS011;13107;51.304;6.866;2024-02-26T02:42:13;2.15;;;0.90;;
25127;SDS011;13107;51.304;6.866;2024-02-26T02:46:16;1.50;;;1.10;;
25127;SDS011;13107;51.304;6.866;2024-02-26T02:50:18;4.97;;;1.10;;
25127;SDS011;13107;51.304;6.866;2024-02-26T02:54:20;2.25;;;0.88;;
25127;SDS011;13107;51.304;6.866;2024-02-26T02:58:22;1.73;;;0.90;;
25127;SDS011;13107;51.304;6.866;2024-02-26T03:02:23;1.95;;;1.05;;
25127;SDS011;13107;51.304;6.866;2024-02-26T03:06:28;2.55;;;0.95;;
25127;SDS011;13107;51.304;6.866;2024-02-26T03:10:30;1.50;;;0.90;;
25127;SDS011;13107;51.304;6.866;2024-02-26T03:14:32;2.87;;;1.00;;
25127;SDS011;13107;51.304;6.866;2024-02-26T03:18:34;3.17;;;0.90;;
25127;SDS011;13107;51.304;6.866;2024-02-26T03:22:38;3.45;;;1.17;;
25127;SDS011;13107;51.304;6.866;2024-02-26T03:26:41;3.03;;;1.00;;
25127;SDS011;13107;51.304;6.866;2024-02-26T03:30:42;4.07;;;1.00;;
25127;SDS011;13107;51.304;6.866;2024-02-26T03:34:44;2.50;;;0.90;;
25127;SDS011;13107;51.304;6.866;2024-02-26T03:38:47;2.75;;;1.00;;
25127;SDS011;13107;51.304;6.866;2024-02-26T03:42:49;2.03;;;1.15;;
25127;SDS011;13107;51.304;6.866;2024-02-26T03:46:51;2.15;;;1.02;;
25127;SDS011;13107;51.304;6.866;2024-02-26T03:50:53;3.95;;;1.30;;
25127;SDS011;13107;51.304;6.866;2024-02-26T03:54:55;3.37;;;0.90;;
25127;SDS011;13107;51.304;6.866;2024-02-26T03:58:57;2.12;;;0.80;;
25127;SDS011;13107;51.304;6.866;2024-02-26T04:03:00;2.58;;;1.20;;
25127;SDS011;13107;51.304;6.866;2024-02-26T04:07:03;2.10;;;1.00;;
25127;SDS011;13107;51.304;6.866;2024-02-26T04:11:05;3.30;;;1.30;;
25127;SDS011;13107;51.304;6.866;2024-02-26T04:15:09;1.75;;;1.23;;
25127;SDS011;13107;51.304;6.866;2024-02-26T04:19:11;2.25;;;1.50;;
25127;SDS011;13107;51.304;6.866;2024-02-26T04:23:13;2.70;;;1.23;;
25127;SDS011;13107;51.304;6.866;2024-02-26T04:27:15;3.25;;;1.73;;
25127;SDS011;13107;51.304;6.866;2024-02-26T04:31:17;1.87;;;1.20;;
25127;SDS011;13107;51.304;6.866;2024-02-26T04:35:19;2.75;;;1.17;;
25127;SDS011;13107;51.304;6.866;2024-02-26T04:39:21;2.28;;;1.37;;
25127;SDS011;13107;51.304;6.866;2024-02-26T04:43:23;2.53;;;1.48;;
25127;SDS011;13107;51.304;6.866;2024-02-26T04:47:25;3.28;;;1.48;;
25127;SDS011;13107;51.304;6.866;2024-02-26T04:51:27;3.62;;;1.60;;
25127;SDS011;13107;51.304;6.866;2024-02-26T04:55:29;3.55;;;1.70;;
25127;SDS011;13107;51.304;6.866;2024-02-26T04:59:31;4.45;;;1.65;;
25127;SDS011;13107;51.304;6.866;2024-02-26T05:03:32;2.42;;;1.48;;
25127;SDS011;13107;51.304;6.866;2024-02-26T05:07:40;2.87;;;1.58;;
25127;SDS011;13107;51.304;6.866;2024-02-26T05:11:46;5.22;;;1.70;;
25127;SDS011;13107;51.304;6.866;2024-02-26T05:15:48;4.25;;;1.77;;
25127;SDS011;13107;51.304;6.866;2024-02-26T05:19:53;4.72;;;1.58;;
25127;SDS011;13107;51.304;6.866;2024-02-26T05:23:55;3.28;;;1.85;;
25127;SDS011;13107;51.304;6.866;2024-02-26T05:27:57;4.75;;;1.90;;
25127;SDS011;13107;51.304;6.866;2024-02-26T05:31:59;2.75;;;2.00;;
25127;SDS011;13107;51.304;6.866;2024-02-26T05:36:01;4.60;;;2.42;;
25127;SDS011;13107;51.304;6.866;2024-02-26T05:40:05;2.30;;;1.85;;
25127;SDS011;13107;51.304;6.866;2024-02-26T05:44:08;3.65;;;2.03;;
25127;SDS011;13107;51.304;6.866;2024-02-26T05:48:11;2.85;;;2.10;;
25127;SDS011;13107;51.304;6.866;2024-02-26T05:52:13;4.18;;;2.45;;
25127;SDS011;13107;51.304;6.866;2024-02-26T05:56:15;5.07;;;2.60;;
25127;SDS011;13107;51.304;6.866;2024-02-26T06:00:17;4.82;;;2.90;;
25127;SDS011;13107;51.304;6.866;2024-02-26T06:04:19;4.22;;;2.78;;
25127;SDS011;13107;51.304;6.866;2024-02-26T06:08:21;6.47;;;2.80;;
25127;SDS011;13107;51.304;6.866;2024-02-26T06:12:23;2.95;;;2.33;;
25127;SDS011;13107;51.304;6.866;2024-02-26T06:16:25;3.17;;;2.72;;
25127;SDS011;13107;51.304;6.866;2024-02-26T06:20:27;4.40;;;2.53;;
25127;SDS011;13107;51.304;6.866;2024-02-26T06:24:29;5.68;;;2.95;;
25127;SDS011;13107;51.304;6.866;2024-02-26T06:28:31;5.15;;;3.00;;
25127;SDS011;13107;51.304;6.866;2024-02-26T06:32:35;5.45;;;2.97;;
25127;SDS011;13107;51.304;6.866;2024-02-26T06:36:36;5.75;;;3.70;;
25127;SDS011;13107;51.304;6.866;2024-02-26T06:40:38;5.87;;;3.53;;
25127;SDS011;13107;51.304;6.866;2024-02-26T06:44:40;4.78;;;3.20;;
25127;SDS011;13107;51.304;6.866;2024-02-26T06:48:42;12.30;;;7.72;;
25127;SDS011;13107;51.304;6.866;2024-02-26T06:52:44;3.30;;;2.87;;
25127;SDS011;13107;51.304;6.866;2024-02-26T06:56:47;5.05;;;2.80;;
25127;SDS011;13107;51.304;6.866;2024-02-26T07:00:49;5.75;;;3.00;;
25127;SDS011;13107;51.304;6.866;2024-02-26T07:04:51;5.70;;;2.60;;
25127;SDS011;13107;51.304;6.866;2024-02-26T07:08:53;3.60;;;2.78;;
25127;SDS011;13107;51.304;6.866;2024-02-26T07:12:55;5.85;;;3.20;;
25127;SDS011;13107;51.304;6.866;2024-02-26T07:16:56;4.80;;;2.50;;
25127;SDS011;13107;51.304;6.866;2024-02-26T07:21:01;3.85;;;2.60;;
25127;SDS011;13107;51.304;6.866;2024-02-26T07:25:03;4.80;;;2.58;;
25127;SDS011;13107;51.304;6.866;2024-02-26T07:29:08;2.92;;;2.30;;
25127;SDS011;13107;51.304;6.866;2024-02-26T07:33:09;4.00;;;2.50;;
25127;SDS011;13107;51.304;6.866;2024-02-26T07:37:12;5.75;;;3.10;;
25127;SDS011;13107;51.304;6.866;2024-02-26T07:41:13;5.20;;;2.92;;
25127;SDS011;13107;51.304;6.866;2024-02-26T07:45:15;3.95;;;2.70;;
25127;SDS011;13107;51.304;6.866;2024-02-26T07:49:19;4.65;;;2.85;;
25127;SDS011;13107;51.304;6.866;2024-02-26T07:53:21;4.30;;;2.65;;
25127;SDS011;13107;51.304;6.866;2024-02-26T07:57:23;6.55;;;2.80;;
25127;SDS011;13107;51.304;6.866;2024-02-26T08:01:25;4.70;;;2.87;;
25127;SDS011;13107;51.304;6.866;2024-02-26T08:05:27;3.55;;;2.87;;
25127;SDS011;13107;51.304;6.866;2024-02-26T08:09:29;5.75;;;2.90;;
25127;SDS011;13107;51.304;6.866;2024-02-26T08:13:31;5.60;;;2.70;;
25127;SDS011;13107;51.304;6.866;2024-02-26T08:17:33;4.62;;;2.50;;
25127;SDS011;13107;51.304;6.866;2024-02-26T08:21:34;4.50;;;2.80;;
25127;SDS011;13107;51.304;6.866;2024-02-26T08:25:38;4.12;;;2.45;;
25127;SDS011;13107;51.304;6.866;2024-02-26T08:29:39;3.55;;;2.42;;
25127;SDS011;13107;51.304;6.866;2024-02-26T08:33:41;3.87;;;2.53;;
25127;SDS011;13107;51.304;6.866;2024-02-26T08:37:47;4.53;;;2.75;;
25127;SDS011;13107;51.304;6.866;2024-02-26T08:41:49;5.87;;;2.42;;
25127;SDS011;13107;51.304;6.866;2024-02-26T08:45:51;4.18;;;2.53;;
25127;SDS011;13107;51.304;6.866;2024-02-26T08:49:53;4.95;;;2.42;;
25127;SDS011;13107;51.304;6.866;2024-02-26T08:53:55;5.00;;;2.50;;
25127;SDS011;13107;51.304;6.866;2024-02-26T08:57:57;4.40;;;2.40;;
25127;SDS011;13107;51.304;6.866;2024-02-26T09:01:59;4.65;;;2.60;;
25127;SDS011;13107;51.304;6.866;2024-02-26T09:06:01;3.25;;;2.35;;
25127;SDS011;13107;51.304;6.866;2024-02-26T09:10:03;4.55;;;2.35;;
25127;SDS011;13107;51.304;6.866;2024-02-26T09:14:06;4.55;;;2.30;;
25127;SDS011;13107;51.304;6.866;2024-02-26T09:18:08;4.53;;;2.75;;
25127;SDS011;13107;51.304;6.866;2024-02-26T09:22:10;3.90;;;2.80;;
25127;SDS011;13107;51.304;6.866;2024-02-26T09:26:13;4.05;;;2.40;;
25127;SDS011;13107;51.304;6.866;2024-02-26T09:30:16;5.03;;;3.10;;
25127;SDS011;13107;51.304;6.866;2024-02-26T09:34:18;6.22;;;3.53;;
25127;SDS011;13107;51.304;6.866;2024-02-26T09:38:20;4.12;;;3.08;;
25127;SDS011;13107;51.304;6.866;2024-02-26T09:42:22;6.93;;;3.35;;
25127;SDS011;13107;51.304;6.866;2024-02-26T09:46:27;4.75;;;2.85;;
25127;SDS011;13107;51.304;6.866;2024-02-26T09:50:30;3.65;;;2.78;;
25127;SDS011;13107;51.304;6.866;2024-02-26T09:54:32;6.53;;;3.03;;
25127;SDS011;13107;51.304;6.866;2024-02-26T09:58:34;8.20;;;3.85;;
25127;SDS011;13107;51.304;6.866;2024-02-26T10:02:37;5.57;;;3.30;;
25127;SDS011;13107;51.304;6.866;2024-02-26T10:06:40;6.25;;;3.50;;
25127;SDS011;13107;51.304;6.866;2024-02-26T10:10:45;7.57;;;3.30;;
25127;SDS011;13107;51.304;6.866;2024-02-26T10:14:48;4.90;;;3.75;;
25127;SDS011;13107;51.304;6.866;2024-02-26T10:18:50;5.53;;;3.90;;
25127;SDS011;13107;51.304;6.866;2024-02-26T10:22:56;5.18;;;3.58;;
25127;SDS011;13107;51.304;6.866;2024-02-26T10:26:58;4.97;;;3.70;;
25127;SDS011;13107;51.304;6.866;2024-02-26T10:31:00;7.85;;;4.10;;
25127;SDS011;13107;51.304;6.866;2024-02-26T10:35:02;4.97;;;3.87;;
25127;SDS011;13107;51.304;6.866;2024-02-26T10:39:04;6.72;;;3.92;;
25127;SDS011;13107;51.304;6.866;2024-02-26T10:43:06;5.90;;;3.95;;
25127;SDS011;13107;51.304;6.866;2024-02-26T10:47:08;6.90;;;4.05;;
25127;SDS011;13107;51.304;6.866;2024-02-26T10:51:10;6.75;;;3.72;;
25127;SDS011;13107;51.304;6.866;2024-02-26T10:55:17;6.07;;;4.00;;
25127;SDS011;13107;51.304;6.866;2024-02-26T10:59:22;5.22;;;3.90;;
25127;SDS011;13107;51.304;6.866;2024-02-26T11:03:24;7.12;;;4.22;;
25127;SDS011;13107;51.304;6.866;2024-02-26T11:07:27;4.85;;;3.92;;
25127;SDS011;13107;51.304;6.866;2024-02-26T11:11:31;7.03;;;3.72;;
25127;SDS011;13107;51.304;6.866;2024-02-26T11:15:35;5.68;;;4.05;;
25127;SDS011;13107;51.304;6.866;2024-02-26T11:19:38;6.95;;;4.53;;
25127;SDS011;13107;51.304;6.866;2024-02-26T11:23:43;6.53;;;4.35;;
25127;SDS011;13107;51.304;6.866;2024-02-26T11:27:47;8.32;;;4.80;;
25127;SDS011;13107;51.304;6.866;2024-02-26T11:31:56;6.90;;;4.53;;
25127;SDS011;13107;51.304;6.866;2024-02-26T11:36:11;7.53;;;4.68;;
25127;SDS011;13107;51.304;6.866;2024-02-26T11:40:14;5.93;;;4.12;;
25127;SDS011;13107;51.304;6.866;2024-02-26T11:44:24;5.35;;;4.00;;
25127;SDS011;13107;51.304;6.866;2024-02-26T11:48:30;8.25;;;4.60;;
25127;SDS011;13107;51.304;6.866;2024-02-26T11:52:33;7.50;;;5.03;;
25127;SDS011;13107;51.304;6.866;2024-02-26T11:56:40;10.93;;;5.70;;
25127;SDS011;13107;51.304;6.866;2024-02-26T12:00:42;7.87;;;5.00;;
25127;SDS011;13107;51.304;6.866;2024-02-26T12:04:44;8.48;;;5.37;;
25127;SDS011;13107;51.304;6.866;2024-02-26T12:08:46;8.45;;;5.62;;
25127;SDS011;13107;51.304;6.866;2024-02-26T12:12:49;8.15;;;5.65;;
25127;SDS011;13107;51.304;6.866;2024-02-26T12:16:51;10.65;;;6.15;;
25127;SDS011;13107;51.304;6.866;2024-02-26T12:21:00;10.43;;;6.30;;
25127;SDS011;13107;51.304;6.866;2024-02-26T12:25:03;9.02;;;6.07;;
25127;SDS011;13107;51.304;6.866;2024-02-26T12:29:07;8.82;;;5.80;;
25127;SDS011;13107;51.304;6.866;2024-02-26T12:33:09;10.77;;;6.55;;
25127;SDS011;13107;51.304;6.866;2024-02-26T12:37:11;8.02;;;5.87;;
25127;SDS011;13107;51.304;6.866;2024-02-26T12:41:13;9.05;;;6.60;;
25127;SDS011;13107;51.304;6.866;2024-02-26T12:45:16;9.82;;;6.00;;
25127;SDS011;13107;51.304;6.866;2024-02-26T12:49:18;6.87;;;5.43;;
25127;SDS011;13107;51.304;6.866;2024-02-26T12:53:20;9.25;;;6.37;;
25127;SDS011;13107;51.304;6.866;2024-02-26T12:57:22;8.30;;;6.00;;
25127;SDS011;13107;51.304;6.866;2024-02-26T13:01:25;7.80;;;5.93;;
25127;SDS011;13107;51.304;6.866;2024-02-26T13:05:27;7.53;;;5.68;;
25127;SDS011;13107;51.304;6.866;2024-02-26T13:09:33;8.88;;;6.00;;
25127;SDS011;13107;51.304;6.866;2024-02-26T13:13:39;11.95;;;6.60;;
25127;SDS011;13107;51.304;6.866;2024-02-26T13:17:41;9.73;;;6.65;;
25127;SDS011;13107;51.304;6.866;2024-02-26T13:21:43;10.00;;;6.87;;
25127;SDS011;13107;51.304;6.866;2024-02-26T13:25:45;12.32;;;7.07;;
25127;SDS011;13107;51.304;6.866;2024-02-26T13:29:46;9.25;;;6.75;;
25127;SDS011;13107;51.304;6.866;2024-02-26T13:33:48;10.85;;;6.80;;
25127;SDS011;13107;51.304;6.866;2024-02-26T13:37:51;9.82;;;6.87;;
25127;SDS011;13107;51.304;6.866;2024-02-26T13:41:53;10.60;;;7.22;;
25127;SDS011;13107;51.304;6.866;2024-02-26T13:45:55;9.90;;;6.68;;
25127;SDS011;13107;51.304;6.866;2024-02-26T13:49:58;10.13;;;6.90;;
25127;SDS011;13107;51.304;6.866;2024-02-26T13:54:00;9.57;;;6.43;;
25127;SDS011;13107;51.304;6.866;2024-02-26T13:58:02;7.75;;;5.50;;
25127;SDS011;13107;51.304;6.866;2024-02-26T14:02:04;9.02;;;5.93;;
25127;SDS011;13107;51.304;6.866;2024-02-26T14:06:06;7.95;;;5.40;;
25127;SDS011;13107;51.304;6.866;2024-02-26T14:10:08;8.90;;;5.68;;
25127;SDS011;13107;51.304;6.866;2024-02-26T14:14:13;9.25;;;4.80;;
25127;SDS011;13107;51.304;6.866;2024-02-26T14:18:14;7.15;;;4.95;;
25127;SDS011;13107;51.304;6.866;2024-02-26T14:22:16;7.22;;;5.10;;
25127;SDS011;13107;51.304;6.866;2024-02-26T14:26:18;6.65;;;4.68;;
25127;SDS011;13107;51.304;6.866;2024-02-26T14:30:20;6.95;;;4.20;;
25127;SDS011;13107;51.304;6.866;2024-02-26T14:34:23;7.57;;;4.57;;
25127;SDS011;13107;51.304;6.866;2024-02-26T14:38:25;8.02;;;4.62;;
25127;SDS011;13107;51.304;6.866;2024-02-26T14:42:27;7.53;;;5.18;;
25127;SDS011;13107;51.304;6.866;2024-02-26T14:46:28;6.47;;;4.68;;
25127;SDS011;13107;51.304;6.866;2024-02-26T14:50:30;9.93;;;4.60;;
25127;SDS011;13107;51.304;6.866;2024-02-26T14:54:32;5.80;;;4.10;;
25127;SDS011;13107;51.304;6.866;2024-02-26T14:58:38;6.20;;;4.10;;
25127;SDS011;13107;51.304;6.866;2024-02-26T15:02:40;7.12;;;4.28;;
25127;SDS011;13107;51.304;6.866;2024-02-26T15:06:42;6.40;;;4.65;;
25127;SDS011;13107;51.304;6.866;2024-02-26T15:10:44;6.30;;;4.05;;
25127;SDS011;13107;51.304;6.866;2024-02-26T15:14:49;6.15;;;3.95;;
25127;SDS011;13107;51.304;6.866;2024-02-26T15:18:51;7.07;;;4.40;;
25127;SDS011;13107;51.304;6.866;2024-02-26T15:22:53;5.10;;;4.22;;
25127;SDS011;13107;51.304;6.866;2024-02-26T15:26:55;6.65;;;3.60;;
25127;SDS011;13107;51.304;6.866;2024-02-26T15:30:58;5.57;;;3.67;;
25127;SDS011;13107;51.304;6.866;2024-02-26T15:35:00;5.60;;;3.83;;
25127;SDS011;13107;51.304;6.866;2024-02-26T15:39:02;7.28;;;4.80;;
25127;SDS011;13107;51.304;6.866;2024-02-26T15:43:04;5.30;;;3.72;;
25127;SDS011;13107;51.304;6.866;2024-02-26T15:47:07;5.22;;;3.40;;
25127;SDS011;13107;51.304;6.866;2024-02-26T15:51:17;6.68;;;3.50;;
25127;SDS011;13107;51.304;6.866;2024-02-26T15:55:21;7.37;;;3.78;;
25127;SDS011;13107;51.304;6.866;2024-02-26T15:59:22;5.20;;;3.67;;
25127;SDS011;13107;51.304;6.866;2024-02-26T16:03:26;6.12;;;3.20;;
25127;SDS011;13107;51.304;6.866;2024-02-26T16:07:30;6.55;;;3.20;;
25127;SDS011;13107;51.304;6.866;2024-02-26T16:11:35;4.35;;;2.95;;
25127;SDS011;13107;51.304;6.866;2024-02-26T16:15:38;5.20;;;2.25;;
25127;SDS011;13107;51.304;6.866;2024-02-26T16:19:44;5.55;;;2.75;;
25127;SDS011;13107;51.304;6.866;2024-02-26T16:23:46;4.22;;;2.37;;
25127;SDS011;13107;51.304;6.866;2024-02-26T16:27:47;4.43;;;2.83;;
25127;SDS011;13107;51.304;6.866;2024-02-26T16:31:49;4.03;;;2.10;;
25127;SDS011;13107;51.304;6.866;2024-02-26T16:35:52;4.22;;;2.15;;
25127;SDS011;13107;51.304;6.866;2024-02-26T16:39:57;3.92;;;2.10;;
25127;SDS011;13107;51.304;6.866;2024-02-26T16:44:00;4.90;;;2.15;;
25127;SDS011;13107;51.304;6.866;2024-02-26T16:48:03;4.18;;;2.22;;
25127;SDS011;13107;51.304;6.866;2024-02-26T16:52:05;3.85;;;2.35;;
25127;SDS011;13107;51.304;6.866;2024-02-26T16:56:10;3.92;;;2.35;;
25127;SDS011;13107;51.304;6.866;2024-02-26T17:00:12;3.62;;;2.33;;
25127;SDS011;13107;51.304;6.866;2024-02-26T17:04:17;4.87;;;2.33;;
25127;SDS011;13107;51.304;6.866;2024-02-26T17:08:19;7.50;;;2.53;;
25127;SDS011;13107;51.304;6.866;2024-02-26T17:12:22;4.65;;;2.50;;
25127;SDS011;13107;51.304;6.866;2024-02-26T17:16:24;3.80;;;2.33;;
25127;SDS011;13107;51.304;6.866;2024-02-26T17:20:25;6.68;;;2.33;;
25127;SDS011;13107;51.304;6.866;2024-02-26T17:24:27;5.30;;;2.70;;
25127;SDS011;13107;51.304;6.866;2024-02-26T17:28:29;6.20;;;2.50;;
25127;SDS011;13107;51.304;6.866;2024-02-26T17:32:31;5.47;;;2.85;;
25127;SDS011;13107;51.304;6.866;2024-02-26T17:36:33;4.05;;;2.00;;
25127;SDS011;13107;51.304;6.866;2024-02-26T17:40:35;3.15;;;2.05;;
25127;SDS011;13107;51.304;6.866;2024-02-26T17:44:38;4.30;;;2.20;;
25127;SDS011;13107;51.304;6.866;2024-02-26T17:48:40;4.10;;;2.60;;
25127;SDS011;13107;51.304;6.866;2024-02-26T17:52:44;4.00;;;2.37;;
25127;SDS011;13107;51.304;6.866;2024-02-26T17:56:46;3.20;;;2.28;;
25127;SDS011;13107;51.304;6.866;2024-02-26T18:00:48;4.43;;;2.65;;
25127;SDS011;13107;51.304;6.866;2024-02-26T18:04:50;4.12;;;2.72;;
25127;SDS011;13107;51.304;6.866;2024-02-26T18:08:52;4.57;;;2.80;;
25127;SDS011;13107;51.304;6.866;2024-02-26T18:12:54;8.93;;;3.20;;
25127;SDS011;13107;51.304;6.866;2024-02-26T18:16:59;5.85;;;2.83;;
25127;SDS011;13107;51.304;6.866;2024-02-26T18:21:01;4.45;;;2.85;;
25127;SDS011;13107;51.304;6.866;2024-02-26T18:25:03;3.37;;;2.47;;
25127;SDS011;13107;51.304;6.866;2024-02-26T18:29:06;3.95;;;2.80;;
25127;SDS011;13107;51.304;6.866;2024-02-26T18:33:07;4.68;;;2.60;;
25127;SDS011;13107;51.304;6.866;2024-02-26T18:37:09;4.10;;;2.40;;
25127;SDS011;13107;51.304;6.866;2024-02-26T18:41:18;5.22;;;2.60;;
25127;SDS011;13107;51.304;6.866;2024-02-26T18:45:25;4.07;;;2.53;;
25127;SDS011;13107;51.304;6.866;2024-02-26T18:49:26;4.28;;;2.72;;
25127;SDS011;13107;51.304;6.866;2024-02-26T18:53:30;4.43;;;3.10;;
25127;SDS011;13107;51.304;6.866;2024-02-26T18:57:32;4.70;;;2.20;;
25127;SDS011;13107;51.304;6.866;2024-02-26T19:01:34;4.68;;;2.92;;
25127;SDS011;13107;51.304;6.866;2024-02-26T19:05:36;4.55;;;3.00;;
25127;SDS011;13107;51.304;6.866;2024-02-26T19:09:39;7.03;;;3.65;;
25127;SDS011;13107;51.304;6.866;2024-02-26T19:13:42;5.45;;;3.72;;
25127;SDS011;13107;51.304;6.866;2024-02-26T19:17:43;7.85;;;5.18;;
25127;SDS011;13107;51.304;6.866;2024-02-26T19:21:45;8.38;;;5.03;;
25127;SDS011;13107;51.304;6.866;2024-02-26T19:25:47;9.70;;;5.82;;
25127;SDS011;13107;51.304;6.866;2024-02-26T19:29:49;8.70;;;6.00;;
25127;SDS011;13107;51.304;6.866;2024-02-26T19:33:51;11.70;;;7.10;;
25127;SDS011;13107;51.304;6.866;2024-02-26T19:37:53;10.70;;;7.25;;
25127;SDS011;13107;51.304;6.866;2024-02-26T19:41:54;10.40;;;7.37;;
25127;SDS011;13107;51.304;6.866;2024-02-26T19:45:56;11.07;;;7.65;;
25127;SDS011;13107;51.304;6.866;2024-02-26T19:49:58;12.15;;;7.87;;
25127;SDS011;13107;51.304;6.866;2024-02-26T19:54:00;11.30;;;7.80;;
25127;SDS011;13107;51.304;6.866;2024-02-26T19:58:05;12.95;;;8.52;;
25127;SDS011;13107;51.304;6.866;2024-02-26T20:02:06;11.18;;;8.18;;
25127;SDS011;13107;51.304;6.866;2024-02-26T20:06:08;13.45;;;8.95;;
25127;SDS011;13107;51.304;6.866;2024-02-26T20:10:10;12.95;;;8.65;;
25127;SDS011;13107;51.304;6.866;2024-02-26T20:14:13;12.55;;;9.00;;
25127;SDS011;13107;51.304;6.866;2024-02-26T20:18:16;12.18;;;8.35;;
25127;SDS011;13107;51.304;6.866;2024-02-26T20:22:17;12.05;;;8.75;;
25127;SDS011;13107;51.304;6.866;2024-02-26T20:26:19;13.93;;;9.05;;
25127;SDS011;13107;51.304;6.866;2024-02-26T20:30:21;12.63;;;9.10;;
25127;SDS011;13107;51.304;6.866;2024-02-26T20:34:27;15.07;;;9.45;;
25127;SDS011;13107;51.304;6.866;2024-02-26T20:38:29;13.93;;;9.05;;
25127;SDS011;13107;51.304;6.866;2024-02-26T20:42:30;16.05;;;9.27;;
25127;SDS011;13107;51.304;6.866;2024-02-26T20:46:32;13.07;;;8.70;;
25127;SDS011;13107;51.304;6.866;2024-02-26T20:50:34;14.35;;;9.85;;
25127;SDS011;13107;51.304;6.866;2024-02-26T20:54:37;13.25;;;8.93;;
25127;SDS011;13107;51.304;6.866;2024-02-26T20:58:39;13.90;;;9.75;;
25127;SDS011;13107;51.304;6.866;2024-02-26T21:02:41;13.82;;;9.55;;
25127;SDS011;13107;51.304;6.866;2024-02-26T21:06:43;15.00;;;10.90;;
25127;SDS011;13107;51.304;6.866;2024-02-26T21:10:45;15.63;;;10.95;;
25127;SDS011;13107;51.304;6.866;2024-02-26T21:14:52;18.17;;;11.30;;
25127;SDS011;13107;51.304;6.866;2024-02-26T21:18:55;15.57;;;10.93;;
25127;SDS011;13107;51.304;6.866;2024-02-26T21:23:00;14.93;;;10.88;;
25127;SDS011;13107;51.304;6.866;2024-02-26T21:27:02;15.10;;;10.77;;
25127;SDS011;13107;51.304;6.866;2024-02-26T21:31:04;16.73;;;11.80;;
25127;SDS011;13107;51.304;6.866;2024-02-26T21:35:07;16.33;;;11.57;;
25127;SDS011;13107;51.304;6.866;2024-02-26T21:39:10;17.55;;;12.40;;
25127;SDS011;13107;51.304;6.866;2024-02-26T21:43:12;17.27;;;11.93;;
25127;SDS011;13107;51.304;6.866;2024-02-26T21:47:15;18.30;;;13.10;;
25127;SDS011;13107;51.304;6.866;2024-02-26T21:51:17;21.33;;;12.98;;
25127;SDS011;13107;51.304;6.866;2024-02-26T21:55:19;20.85;;;14.35;;
25127;SDS011;13107;51.304;6.866;2024-02-26T21:59:21;20.08;;;14.68;;
25127;SDS011;13107;51.304;6.866;2024-02-26T22:03:23;22.00;;;14.85;;
25127;SDS011;13107;51.304;6.866;2024-02-26T22:07:25;20.73;;;15.70;;
25127;SDS011;13107;51.304;6.866;2024-02-26T22:11:28;21.20;;;15.20;;
25127;SDS011;13107;51.304;6.866;2024-02-26T22:15:30;21.10;;;14.57;;
25127;SDS011;13107;51.304;6.866;2024-02-26T22:19:32;25.70;;;16.25;;
25127;SDS011;13107;51.304;6.866;2024-02-26T22:23:34;23.98;;;16.37;;
25127;SDS011;13107;51.304;6.866;2024-02-26T22:27:36;26.62;;;17.55;;
25127;SDS011;13107;51.304;6.866;2024-02-26T22:31:38;26.15;;;18.45;;
25127;SDS011;13107;51.304;6.866;2024-02-26T22:35:41;26.90;;;18.20;;
25127;SDS011;13107;51.304;6.866;2024-02-26T22:39:42;26.90;;;18.05;;
25127;SDS011;13107;51.304;6.866;2024-02-26T22:43:45;28.45;;;19.65;;
25127;SDS011;13107;51.304;6.866;2024-02-26T22:47:47;28.80;;;19.42;;
25127;SDS011;13107;51.304;6.866;2024-02-26T22:51:48;30.98;;;21.02;;
25127;SDS011;13107;51.304;6.866;2024-02-26T22:55:51;33.25;;;21.30;;
25127;SDS011;13107;51.304;6.866;2024-02-26T22:59:53;28.98;;;21.05;;
25127;SDS011;13107;51.304;6.866;2024-02-26T23:03:55;30.42;;;21.45;;
25127;SDS011;13107;51.304;6.866;2024-02-26T23:07:57;31.05;;;20.77;;
25127;SDS011;13107;51.304;6.866;2024-02-26T23:11:59;31.95;;;20.90;;
25127;SDS011;13107;51.304;6.866;2024-02-26T23:16:01;29.63;;;21.87;;
25127;SDS011;13107;51.304;6.866;2024-02-26T23:20:04;30.45;;;20.95;;
25127;SDS011;13107;51.304;6.866;2024-02-26T23:24:10;32.20;;;23.17;;
25127;SDS011;13107;51.304;6.866;2024-02-26T23:28:12;33.47;;;21.33;;
25127;SDS011;13107;51.304;6.866;2024-02-26T23:32:14;30.10;;;20.90;;
25127;SDS011;13107;51.304;6.866;2024-02-26T23:36:15;28.45;;;20.80;;
25127;SDS011;13107;51.304;6.866;2024-02-26T23:40:17;33.15;;;22.40;;
25127;SDS011;13107;51.304;6.866;2024-02-26T23:44:19;29.80;;;21.25;;
25127;SDS011;13107;51.304;6.866;2024-02-26T23:48:21;32.67;;;21.83;;
25127;SDS011;13107;51.304;6.866;2024-02-26T23:52:23;31.95;;;20.98;;
25127;SDS011;13107;51.304;6.866;2024-02-26T23:56:25;31.62;;;21.73;;
